createdAt,value
2022-11-26T00:00:51.600Z,5.80
2022-11-26T00:03:20.142Z,5.00
2022-11-26T00:05:51.563Z,7.00
2022-11-26T00:08:24.095Z,6.20
2022-11-26T00:10:54.314Z,6.40
2022-11-26T00:13:25.062Z,5.80
2022-11-26T00:15:54.659Z,5.80
2022-11-26T00:18:23.450Z,6.10
2022-11-26T00:20:55.481Z,6.30
2022-11-26T00:23:25.867Z,4.70
2022-11-26T00:25:57.394Z,6.40
2022-11-26T00:28:30.638Z,5.90
2022-11-26T00:31:02.655Z,4.50
2022-11-26T00:33:31.887Z,5.60
2022-11-26T00:36:03.526Z,5.80
2022-11-26T00:38:32.503Z,6.10
2022-11-26T00:41:00.505Z,5.50
2022-11-26T00:43:28.377Z,6.10
2022-11-26T00:45:56.339Z,4.30
2022-11-26T00:48:25.675Z,4.30
2022-11-26T00:50:53.610Z,5.80
2022-11-26T00:53:26.636Z,5.70
2022-11-26T00:55:54.598Z,5.60
2022-11-26T00:58:25.839Z,4.50
2022-11-26T01:00:54.781Z,5.70
2022-11-26T01:03:23.088Z,6.10
2022-11-26T01:05:54.667Z,4.10
2022-11-26T01:08:29.482Z,5.30
2022-11-26T01:10:57.443Z,6.10
2022-11-26T01:13:25.603Z,5.60
2022-11-26T01:15:54.818Z,5.00
2022-11-26T01:18:23.434Z,5.40
2022-11-26T01:20:52.771Z,5.10
2022-11-26T01:23:21.294Z,4.80
2022-11-26T01:25:49.453Z,3.90
2022-11-26T01:28:20.164Z,4.80
2022-11-26T01:30:48.357Z,6.10
2022-11-26T01:33:16.301Z,4.00
2022-11-26T01:35:44.200Z,4.00
2022-11-26T01:38:15.574Z,4.70
2022-11-26T01:41:07.750Z,5.40
2022-11-26T01:43:40.932Z,4.80
2022-11-26T01:46:15.873Z,4.50
2022-11-26T01:48:44.697Z,4.80
2022-11-26T01:51:13.771Z,5.40
2022-11-26T01:53:47.690Z,6.00
2022-11-26T01:56:31.874Z,5.00
2022-11-26T01:59:04.840Z,5.90
2022-11-26T02:01:33.744Z,5.60
2022-11-26T02:04:11.290Z,6.00
2022-11-26T02:06:39.623Z,4.40
2022-11-26T02:09:10.877Z,4.00
2022-11-26T02:11:39.489Z,6.00
2022-11-26T02:14:12.699Z,5.70
2022-11-26T02:17:00.799Z,3.90
2022-11-26T02:20:17.047Z,3.90
2022-11-26T02:23:25.591Z,3.90
2022-11-26T02:26:29.066Z,3.90
2022-11-26T02:29:07.692Z,3.90
2022-11-26T02:31:44.533Z,3.90
2022-11-26T02:34:19.115Z,4.60
2022-11-26T02:36:52.694Z,4.00
2022-11-26T02:39:22.569Z,6.00
2022-11-26T02:41:53.353Z,4.10
2022-11-26T02:44:23.743Z,3.90
2022-11-26T02:46:57.470Z,3.90
2022-11-26T02:49:26.038Z,5.60
2022-11-26T02:51:57.319Z,3.70
2022-11-26T02:54:26.967Z,4.60
2022-11-26T02:56:55.638Z,5.70
2022-11-26T02:59:23.800Z,3.90
2022-11-26T03:01:58.971Z,5.90
2022-11-26T03:04:32.142Z,5.40
2022-11-26T03:07:04.765Z,5.80
2022-11-26T03:09:41.332Z,4.70
2022-11-26T03:12:10.059Z,4.30
2022-11-26T03:14:38.501Z,5.10
2022-11-26T03:17:08.070Z,4.20
2022-11-26T03:19:35.956Z,4.80
2022-11-26T03:22:03.929Z,4.00
2022-11-26T03:24:32.192Z,3.90
2022-11-26T03:27:00.347Z,4.20
2022-11-26T03:29:28.421Z,4.00
2022-11-26T03:31:56.456Z,4.00
2022-11-26T03:34:25.880Z,4.00
2022-11-26T03:36:54.129Z,5.70
2022-11-26T03:39:22.078Z,5.40
2022-11-26T03:41:49.956Z,5.00
2022-11-26T03:44:17.887Z,3.90
2022-11-26T03:46:45.805Z,5.60
2022-11-26T03:49:13.743Z,4.00
2022-11-26T03:51:43.017Z,3.80
2022-11-26T03:54:11.269Z,4.80
2022-11-26T03:56:39.171Z,5.50
2022-11-26T03:59:07.592Z,3.90
2022-11-26T04:01:35.557Z,3.80
2022-11-26T04:04:03.642Z,4.20
2022-11-26T04:06:31.639Z,5.60
2022-11-26T04:09:00.909Z,3.70
2022-11-26T04:11:28.854Z,4.30
2022-11-26T04:13:56.813Z,4.60
2022-11-26T04:16:24.848Z,4.20
2022-11-26T04:18:53.130Z,3.60
2022-11-26T04:21:21.143Z,3.60
2022-11-26T04:23:49.046Z,3.60
2022-11-26T04:26:18.469Z,3.50
2022-11-26T04:28:46.428Z,5.50
2022-11-26T04:31:14.565Z,5.40
2022-11-26T04:33:43.344Z,5.60
2022-11-26T04:36:11.603Z,5.60
2022-11-26T04:38:39.847Z,4.70
2022-11-26T04:41:07.798Z,3.40
2022-11-26T04:43:41.219Z,3.30
2022-11-26T04:46:09.237Z,5.40
2022-11-26T04:48:37.468Z,2.80
2022-11-26T04:51:05.563Z,3.20
2022-11-26T04:53:33.671Z,3.20
2022-11-26T04:56:01.620Z,3.50
2022-11-26T04:58:29.601Z,3.40
2022-11-26T05:00:59.203Z,2.80
2022-11-26T05:03:27.259Z,2.70
2022-11-26T05:05:55.272Z,3.00
2022-11-26T05:08:23.182Z,5.00
2022-11-26T05:10:54.384Z,4.90
2022-11-26T05:13:22.459Z,2.90
2022-11-26T05:15:50.415Z,3.50
2022-11-26T05:18:19.727Z,3.00
2022-11-26T05:20:47.838Z,3.00
2022-11-26T05:23:15.822Z,3.00
2022-11-26T05:25:44.046Z,4.40
2022-11-26T05:28:12.032Z,4.90
2022-11-26T05:30:39.964Z,3.40
2022-11-26T05:33:07.907Z,3.90
2022-11-26T05:35:39.113Z,3.50
2022-11-26T05:38:07.026Z,4.00
2022-11-26T05:40:35.010Z,3.00
2022-11-26T05:43:03.268Z,3.00
2022-11-26T05:45:31.209Z,4.80
2022-11-26T05:47:59.534Z,4.20
2022-11-26T05:50:27.637Z,4.50
2022-11-26T05:52:56.951Z,3.20
2022-11-26T05:55:24.880Z,3.50
2022-11-26T05:57:53.138Z,5.00
2022-11-26T06:00:21.387Z,4.50
2022-11-26T06:02:49.432Z,3.10
2022-11-26T06:05:17.576Z,3.00
2022-11-26T06:07:45.641Z,3.70
2022-11-26T06:10:15.624Z,5.00
2022-11-26T06:12:43.682Z,3.10
2022-11-26T06:15:12.061Z,3.60
2022-11-26T06:17:40.005Z,3.20
2022-11-26T06:20:09.105Z,3.20
2022-11-26T06:22:41.198Z,3.30
2022-11-26T06:25:11.331Z,4.50
2022-11-26T06:27:41.294Z,3.60
2022-11-26T06:30:11.517Z,5.70
2022-11-26T06:32:39.548Z,3.70
2022-11-26T06:35:07.993Z,5.00
2022-11-26T06:37:36.021Z,3.80
2022-11-26T06:40:04.129Z,5.10
2022-11-26T06:42:32.103Z,3.90
2022-11-26T06:45:01.671Z,4.70
2022-11-26T06:47:29.771Z,5.10
2022-11-26T06:49:57.800Z,5.30
2022-11-26T06:52:25.830Z,5.30
2022-11-26T06:54:53.858Z,5.10
2022-11-26T06:57:21.911Z,3.70
2022-11-26T06:59:49.917Z,4.80
2022-11-26T07:02:19.402Z,4.20
2022-11-26T07:04:47.410Z,4.30
2022-11-26T07:07:15.465Z,4.50
2022-11-26T07:09:43.573Z,5.00
2022-11-26T07:12:12.089Z,5.50
2022-11-26T07:14:40.776Z,4.60
2022-11-26T07:17:08.975Z,4.60
2022-11-26T07:19:38.493Z,5.30
2022-11-26T07:22:06.560Z,5.70
2022-11-26T07:24:34.543Z,5.60
2022-11-26T07:27:02.518Z,5.10
2022-11-26T07:29:30.496Z,5.60
2022-11-26T07:31:58.660Z,5.10
2022-11-26T07:34:27.702Z,5.40
2022-11-26T07:36:58.329Z,5.70
2022-11-26T07:39:26.435Z,5.20
2022-11-26T07:41:54.505Z,5.20
2022-11-26T07:44:22.481Z,6.80
2022-11-26T07:46:50.457Z,4.90
2022-11-26T07:49:18.445Z,5.10
2022-11-26T07:51:46.490Z,5.90
2022-11-26T07:54:15.869Z,5.10
2022-11-26T07:56:43.869Z,5.30
2022-11-26T07:59:12.491Z,5.60
2022-11-26T08:01:40.509Z,6.20
2022-11-26T08:04:08.582Z,6.90
2022-11-26T08:06:36.553Z,6.50
2022-11-26T08:09:06.076Z,6.50
2022-11-26T08:11:35.745Z,5.90
2022-11-26T08:14:05.438Z,5.70
2022-11-26T08:16:34.379Z,6.00
2022-11-26T08:19:05.366Z,5.90
2022-11-26T08:21:33.420Z,6.00
2022-11-26T08:24:01.356Z,6.00
2022-11-26T08:26:35.813Z,6.00
2022-11-26T08:29:07.923Z,6.10
2022-11-26T08:31:37.938Z,7.80
2022-11-26T08:34:08.194Z,6.70
2022-11-26T08:36:36.176Z,6.20
2022-11-26T08:39:04.180Z,6.50
2022-11-26T08:41:32.195Z,6.20
2022-11-26T08:44:08.269Z,7.70
2022-11-26T08:46:38.458Z,8.60
2022-11-26T08:49:07.039Z,7.80
2022-11-26T08:51:35.068Z,6.50
2022-11-26T08:54:03.188Z,7.10
2022-11-26T08:56:31.484Z,6.60
2022-11-26T08:58:59.553Z,6.70
2022-11-26T09:01:29.418Z,6.70
2022-11-26T09:04:00.256Z,6.70
2022-11-26T09:06:30.033Z,6.70
2022-11-26T09:09:17.507Z,6.50
2022-11-26T09:11:48.903Z,6.80
2022-11-26T09:14:18.814Z,6.90
2022-11-26T09:16:47.631Z,6.90
2022-11-26T09:19:17.665Z,7.00
2022-11-26T09:21:45.585Z,7.00
2022-11-26T09:24:13.875Z,8.30
2022-11-26T09:26:42.010Z,7.10
2022-11-26T09:29:11.484Z,8.10
2022-11-26T09:31:55.078Z,8.80
2022-11-26T09:34:44.804Z,7.30
2022-11-26T09:37:12.702Z,7.40
2022-11-26T09:39:40.661Z,7.40
2022-11-26T09:42:23.103Z,9.00
2022-11-26T09:45:12.285Z,8.90
2022-11-26T09:47:42.002Z,7.50
2022-11-26T09:50:24.448Z,7.50
2022-11-26T09:52:55.149Z,7.60
2022-11-26T09:55:26.406Z,8.10
2022-11-26T09:58:04.494Z,8.90
2022-11-26T10:00:35.961Z,9.20
2022-11-26T10:03:14.102Z,7.60
2022-11-26T10:05:53.821Z,9.40
2022-11-26T10:08:56.162Z,7.90
2022-11-26T10:11:31.572Z,7.80
2022-11-26T10:14:11.095Z,8.20
2022-11-26T10:16:47.356Z,7.80
2022-11-26T10:19:24.222Z,7.80
2022-11-26T10:21:59.146Z,7.60
2022-11-26T10:24:30.960Z,8.20
2022-11-26T10:27:02.985Z,7.80
2022-11-26T10:29:39.108Z,7.70
2022-11-26T10:32:14.873Z,7.90
2022-11-26T10:34:48.770Z,7.90
2022-11-26T10:37:19.126Z,8.00
2022-11-26T10:39:47.277Z,8.20
2022-11-26T10:42:19.235Z,8.00
2022-11-26T10:44:49.051Z,8.20
2022-11-26T10:47:23.850Z,8.20
2022-11-26T10:53:22.242Z,8.30
2022-11-26T10:55:51.743Z,8.30
2022-11-26T10:58:23.754Z,9.30
2022-11-26T11:01:14.055Z,8.10
2022-11-26T11:04:08.792Z,8.30
2022-11-26T11:06:43.329Z,8.70
2022-11-26T11:09:29.569Z,8.40
2022-11-26T11:12:17.963Z,8.50
2022-11-26T11:14:53.993Z,8.50
2022-11-26T11:17:33.605Z,8.70
2022-11-26T11:20:06.906Z,8.70
2022-11-26T11:22:35.057Z,10.60
2022-11-26T11:25:04.448Z,8.70
2022-11-26T11:27:38.964Z,8.70
2022-11-26T11:30:08.770Z,8.70
2022-11-26T11:32:39.536Z,8.80
2022-11-26T11:35:22.359Z,11.30
2022-11-26T11:37:51.753Z,8.70
2022-11-26T11:40:25.408Z,8.80
2022-11-26T11:42:57.058Z,8.80
2022-11-26T11:45:33.542Z,8.90
2022-11-26T11:48:11.471Z,10.80
2022-11-26T11:50:45.862Z,8.40
2022-11-26T11:53:30.102Z,10.90
2022-11-26T11:56:15.123Z,9.00
2022-11-26T11:59:13.939Z,9.50
2022-11-26T12:02:04.825Z,9.10
2022-11-26T12:04:52.385Z,11.10
2022-11-26T12:07:38.538Z,9.10
2022-11-26T12:10:13.341Z,10.30
2022-11-26T12:13:02.560Z,9.60
2022-11-26T12:15:34.770Z,10.70
2022-11-26T12:18:11.854Z,11.30
2022-11-26T12:20:56.212Z,9.10
2022-11-26T12:23:30.407Z,9.50
2022-11-26T12:26:06.282Z,9.40
2022-11-26T12:28:41.452Z,9.00
2022-11-26T12:31:35.503Z,9.00
2022-11-26T12:34:08.988Z,8.80
2022-11-26T12:36:45.597Z,8.90
2022-11-26T12:39:20.413Z,11.00
2022-11-26T12:41:59.944Z,8.90
2022-11-26T12:44:34.539Z,10.60
2022-11-26T12:47:11.314Z,11.20
2022-11-26T12:49:46.369Z,10.50
2022-11-26T12:52:29.473Z,10.20
2022-11-26T12:55:05.338Z,8.90
2022-11-26T12:57:38.031Z,8.70
2022-11-26T13:00:25.225Z,8.90
2022-11-26T13:02:55.451Z,8.70
2022-11-26T13:05:32.010Z,8.60
2022-11-26T13:08:18.363Z,9.60
2022-11-26T13:11:05.897Z,8.60
2022-11-26T13:13:44.527Z,8.50
2022-11-26T13:16:24.293Z,9.70
2022-11-26T13:18:56.168Z,8.70
2022-11-26T13:21:44.919Z,8.70
2022-11-26T13:24:28.061Z,8.60
2022-11-26T13:27:13.253Z,8.60
2022-11-26T13:30:12.709Z,10.80
2022-11-26T13:33:15.887Z,8.70
2022-11-26T13:36:13.457Z,8.80
2022-11-26T13:38:57.180Z,9.00
2022-11-26T13:42:10.274Z,8.80
2022-11-26T13:45:09.678Z,8.90
2022-11-26T13:47:42.223Z,8.90
2022-11-26T13:50:16.422Z,10.50
2022-11-26T13:52:50.913Z,11.10
2022-11-26T13:55:31.487Z,8.40
2022-11-26T13:58:09.296Z,9.00
2022-11-26T14:00:37.437Z,9.00
2022-11-26T14:03:06.120Z,8.70
2022-11-26T14:06:09.463Z,9.00
2022-11-26T14:08:39.747Z,8.70
2022-11-26T14:11:08.606Z,8.80
2022-11-26T14:13:36.681Z,8.60
2022-11-26T14:16:07.153Z,10.30
2022-11-26T14:18:56.544Z,8.60
2022-11-26T14:21:26.422Z,8.50
2022-11-26T14:23:55.411Z,8.40
2022-11-26T14:26:28.436Z,8.40
2022-11-26T14:29:10.613Z,8.30
2022-11-26T14:31:41.145Z,8.30
2022-11-26T14:34:14.854Z,9.30
2022-11-26T14:36:56.127Z,8.00
2022-11-26T14:39:24.084Z,8.60
2022-11-26T14:41:54.153Z,7.90
2022-11-26T14:44:23.264Z,7.90
2022-11-26T14:46:57.194Z,7.60
2022-11-26T14:49:45.326Z,7.90
2022-11-26T14:52:20.524Z,7.70
2022-11-26T14:54:52.487Z,7.40
2022-11-26T14:57:25.119Z,8.50
2022-11-26T14:59:57.477Z,8.40
2022-11-26T15:02:27.603Z,8.20
2022-11-26T15:05:00.193Z,7.30
2022-11-26T15:07:30.494Z,7.20
2022-11-26T15:10:03.844Z,9.00
2022-11-26T15:12:32.398Z,8.70
2022-11-26T15:15:02.741Z,7.10
2022-11-26T15:17:33.447Z,8.20
2022-11-26T15:20:06.876Z,9.30
2022-11-26T15:22:39.316Z,8.50
2022-11-26T15:25:16.554Z,7.10
2022-11-26T15:27:53.227Z,6.50
2022-11-26T15:30:22.968Z,8.30
2022-11-26T15:32:58.891Z,7.00
2022-11-26T15:35:27.280Z,6.70
2022-11-26T15:37:56.672Z,8.10
2022-11-26T15:40:26.770Z,6.80
2022-11-26T15:42:58.236Z,8.00
2022-11-26T15:45:37.454Z,6.80
2022-11-26T15:48:07.513Z,7.60
2022-11-26T15:50:38.299Z,6.90
2022-11-26T15:53:15.105Z,6.80
2022-11-26T15:55:47.233Z,6.80
2022-11-26T15:58:22.024Z,6.60
2022-11-26T16:00:54.442Z,6.60
2022-11-26T16:03:46.750Z,6.80
2022-11-26T16:06:33.489Z,6.80
2022-11-26T16:09:07.634Z,6.80
2022-11-26T16:11:37.338Z,6.40
2022-11-26T16:14:29.627Z,9.20
2022-11-26T16:17:01.554Z,8.90
2022-11-26T16:19:34.331Z,8.10
2022-11-26T16:22:04.251Z,8.90
2022-11-26T16:24:38.641Z,8.70
2022-11-26T16:27:25.186Z,9.10
2022-11-26T16:29:53.573Z,6.80
2022-11-26T16:32:21.586Z,6.20
2022-11-26T16:34:49.751Z,6.70
2022-11-26T16:37:23.034Z,7.20
2022-11-26T16:39:54.507Z,7.90
2022-11-26T16:42:24.376Z,6.40
2022-11-26T16:45:18.495Z,7.50
2022-11-26T16:47:48.719Z,6.60
2022-11-26T16:50:19.843Z,8.10
2022-11-26T16:52:58.015Z,4.80
2022-11-26T16:55:27.913Z,8.20
2022-11-26T16:57:59.579Z,7.60
2022-11-26T17:00:28.106Z,7.10
2022-11-26T17:02:56.222Z,6.50
2022-11-26T17:05:24.720Z,6.60
2022-11-26T17:07:55.948Z,6.50
2022-11-26T17:10:29.239Z,6.50
2022-11-26T17:12:57.969Z,6.00
2022-11-26T17:15:26.370Z,6.50
2022-11-26T17:18:00.868Z,8.00
2022-11-26T17:20:28.921Z,6.40
2022-11-26T17:22:56.834Z,6.60
2022-11-26T17:25:24.898Z,6.50
2022-11-26T17:27:54.253Z,6.50
2022-11-26T17:30:24.319Z,8.00
2022-11-26T17:32:52.482Z,7.70
2022-11-26T17:35:20.656Z,7.30
2022-11-26T17:37:48.585Z,6.70
2022-11-26T17:40:18.290Z,6.60
2022-11-26T17:42:46.614Z,6.60
2022-11-26T17:45:16.650Z,6.50
2022-11-26T17:47:45.259Z,6.60
2022-11-26T17:50:19.249Z,6.70
2022-11-26T17:52:48.563Z,8.60
2022-11-26T17:55:16.966Z,7.40
2022-11-26T17:57:45.484Z,6.60
2022-11-26T18:00:20.752Z,6.60
2022-11-26T18:03:10.957Z,4.70
2022-11-26T18:05:42.525Z,7.80
2022-11-26T18:08:10.687Z,5.10
2022-11-26T18:10:40.283Z,6.30
2022-11-26T18:13:08.384Z,8.00
2022-11-26T18:15:37.700Z,7.90
2022-11-26T18:18:05.825Z,6.50
2022-11-26T18:20:34.297Z,6.70
2022-11-26T18:23:02.586Z,6.80
2022-11-26T18:25:32.984Z,8.40
2022-11-26T18:28:00.942Z,6.90
2022-11-26T18:30:30.530Z,6.70
2022-11-26T18:33:00.121Z,8.60
2022-11-26T18:35:28.042Z,6.60
2022-11-26T18:37:56.383Z,6.60
2022-11-26T18:40:24.389Z,7.60
2022-11-26T18:42:53.191Z,6.60
2022-11-26T18:45:21.595Z,6.70
2022-11-26T18:47:49.587Z,6.70
2022-11-26T18:50:19.115Z,7.70
2022-11-26T18:52:47.067Z,6.70
2022-11-26T18:55:15.720Z,6.70
2022-11-26T18:57:43.763Z,6.60
2022-11-26T19:00:12.742Z,6.70
2022-11-26T19:02:40.834Z,6.60
2022-11-26T19:05:13.702Z,6.60
2022-11-26T19:07:43.122Z,6.80
2022-11-26T19:10:12.301Z,6.60
2022-11-26T19:12:40.539Z,6.60
2022-11-26T19:15:09.413Z,6.60
2022-11-26T19:17:37.333Z,6.70
2022-11-26T19:20:06.478Z,6.60
2022-11-26T19:22:34.398Z,6.60
2022-11-26T19:25:04.285Z,6.50
2022-11-26T19:27:33.362Z,6.40
2022-11-26T19:30:01.532Z,8.30
2022-11-26T19:32:29.498Z,6.90
2022-11-26T19:35:01.243Z,6.40
2022-11-26T19:37:33.275Z,6.20
2022-11-26T19:40:07.311Z,6.40
2022-11-26T19:42:35.270Z,6.40
2022-11-26T19:45:03.232Z,6.30
2022-11-26T19:47:31.205Z,6.30
2022-11-26T19:49:59.222Z,6.00
2022-11-26T19:52:27.248Z,6.20
2022-11-26T19:54:55.247Z,6.00
2022-11-26T19:57:24.858Z,6.10
2022-11-26T19:59:52.851Z,6.10
2022-11-26T20:02:20.815Z,6.60
2022-11-26T20:04:48.809Z,6.10
2022-11-26T20:07:16.762Z,6.00
2022-11-26T20:09:44.738Z,7.10
2022-11-26T20:12:12.790Z,6.00
2022-11-26T20:14:42.114Z,6.20
2022-11-26T20:17:10.337Z,6.50
2022-11-26T20:19:38.788Z,5.80
2022-11-26T20:22:08.815Z,5.40
2022-11-26T20:24:37.915Z,5.70
2022-11-26T20:27:05.886Z,6.90
2022-11-26T20:29:33.839Z,5.70
2022-11-26T20:32:03.220Z,6.90
2022-11-26T20:34:33.539Z,5.50
2022-11-26T20:37:02.261Z,6.20
2022-11-26T20:39:31.312Z,5.20
2022-11-26T20:41:59.250Z,6.20
2022-11-26T20:44:28.530Z,5.50
2022-11-26T20:46:57.361Z,5.20
2022-11-26T20:49:30.784Z,5.90
2022-11-26T20:52:01.557Z,5.10
2022-11-26T20:54:29.531Z,5.50
2022-11-26T20:56:57.520Z,5.00
2022-11-26T20:59:25.818Z,6.70
2022-11-26T21:01:53.883Z,5.00
2022-11-26T21:04:21.837Z,5.00
2022-11-26T21:06:51.684Z,7.20
2022-11-26T21:09:19.590Z,5.00
2022-11-26T21:11:47.518Z,5.80
2022-11-26T21:14:15.528Z,4.90
2022-11-26T21:16:43.617Z,6.00
2022-11-26T21:19:12.541Z,4.90
2022-11-26T21:21:40.577Z,5.80
2022-11-26T21:24:10.164Z,5.10
2022-11-26T21:26:38.435Z,4.80
2022-11-26T21:29:06.376Z,5.90
2022-11-26T21:31:34.322Z,6.70
2022-11-26T21:34:03.949Z,4.80
2022-11-26T21:36:33.454Z,4.90
2022-11-26T21:39:01.830Z,5.50
2022-11-26T21:41:33.417Z,4.80
2022-11-26T21:44:03.559Z,4.80
2022-11-26T21:46:37.970Z,5.00
2022-11-26T21:49:07.171Z,4.70
2022-11-26T21:51:35.186Z,4.80
2022-11-26T21:54:03.174Z,4.90
2022-11-26T21:56:33.703Z,5.50
2022-11-26T21:59:02.284Z,5.90
2022-11-26T22:01:31.635Z,4.70
2022-11-26T22:04:01.433Z,5.50
2022-11-26T22:06:29.563Z,5.20
2022-11-26T22:08:57.627Z,5.90
2022-11-26T22:11:27.359Z,5.80
2022-11-26T22:13:57.157Z,5.50
2022-11-26T22:16:27.433Z,5.00
2022-11-26T22:18:57.063Z,6.00
2022-11-26T22:21:26.607Z,4.60
2022-11-26T22:23:55.214Z,5.50
2022-11-26T22:26:23.527Z,4.30
2022-11-26T22:28:52.531Z,4.90
2022-11-26T22:31:24.804Z,5.90
2022-11-26T22:33:56.381Z,4.40
2022-11-26T22:36:24.753Z,6.40
2022-11-26T22:38:53.114Z,4.30
2022-11-26T22:41:21.621Z,4.30
2022-11-26T22:43:50.075Z,4.20
2022-11-26T22:46:22.548Z,4.20
2022-11-26T22:48:52.011Z,4.80
2022-11-26T22:51:20.289Z,4.10
2022-11-26T22:53:51.298Z,4.40
2022-11-26T22:56:19.684Z,5.80
2022-11-26T22:58:48.290Z,4.00
2022-11-26T23:01:19.843Z,4.90
2022-11-26T23:03:50.139Z,4.90
2022-11-26T23:06:19.898Z,5.40
2022-11-26T23:08:48.022Z,3.70
2022-11-26T23:11:19.086Z,4.50
2022-11-26T23:13:48.198Z,3.60
2022-11-26T23:16:16.822Z,3.50
2022-11-26T23:18:45.069Z,3.60
2022-11-26T23:21:17.389Z,3.40
2022-11-26T23:23:46.174Z,3.30
2022-11-26T23:26:17.125Z,3.20
2022-11-26T23:28:47.360Z,3.20
2022-11-26T23:31:20.050Z,3.20
2022-11-26T23:33:48.817Z,3.10
2022-11-26T23:36:18.607Z,4.50
2022-11-26T23:38:46.605Z,4.30
2022-11-26T23:41:14.636Z,3.10
2022-11-26T23:43:42.853Z,3.00
2022-11-26T23:46:15.069Z,3.00
2022-11-26T23:48:43.167Z,4.70
2022-11-26T23:51:15.228Z,4.40
2022-11-26T23:53:45.786Z,4.10
2022-11-26T23:56:15.524Z,3.20
2022-11-26T23:58:43.463Z,3.30
